Shaoguan, China
Current Conditions -  °F | °C
As of 6:00 AM on Thursday 23 Oct 2014 (Local Time) from ZGGG Reporting Station
Broken Clouds Broken Clouds  
Wind Chill: 73°   Ceiling: 5000
Heat Index: 73°   Visibility: 6mi
Dew Point: 55°   Wind: 9mph
Humidity: 53%   Direction: 20°NNE
Pressure: 30"   Gusts: NA
Location:  24.8°N, 113.58°E
Report Text: ZGGG 222200Z 02004MPS 9999 BKN050 23/13 Q1016 NOSIG
Loading
Personal Weather Stations






























Interactive Weather Map
Tropical Storm Tracking
New forecast layout! Learn more

10-Day Weather Forecast

Advertisements
Track Severe Weather on mobile